createdAt,value
2023-01-05T00:01:09.422Z,7.60
2023-01-05T00:03:37.429Z,7.43
2023-01-05T00:06:14.192Z,8.95
2023-01-05T00:08:41.867Z,13.43
2023-01-05T00:11:30.963Z,7.18
2023-01-05T00:14:16.483Z,9.43
2023-01-05T00:17:01.781Z,8.82
2023-01-05T00:19:54.763Z,14.18
2023-01-05T00:22:30.681Z,13.95
2023-01-05T00:25:12.079Z,13.07
2023-01-05T00:27:43.285Z,13.00
2023-01-05T00:30:13.304Z,8.85
2023-01-05T00:32:41.794Z,11.23
2023-01-05T00:35:09.693Z,15.82
2023-01-05T00:37:40.659Z,13.90
2023-01-05T00:40:14.542Z,11.27
2023-01-05T00:42:41.577Z,14.43
2023-01-05T00:45:11.684Z,17.55
2023-01-05T00:47:38.552Z,16.38
2023-01-05T00:50:06.034Z,20.83
2023-01-05T00:52:32.994Z,17.73
2023-01-05T00:54:59.637Z,19.27
2023-01-05T00:57:26.684Z,19.42
2023-01-05T00:59:53.325Z,20.23
2023-01-05T01:02:21.198Z,18.50
2023-01-05T01:04:47.885Z,13.70
2023-01-05T01:07:14.640Z,16.30
2023-01-05T01:09:41.473Z,19.52
2023-01-05T01:12:08.219Z,14.63
2023-01-05T01:14:36.708Z,21.25
2023-01-05T01:17:03.529Z,15.40
2023-01-05T01:19:30.205Z,18.42
2023-01-05T01:21:57.249Z,18.85
2023-01-05T01:24:27.560Z,18.35
2023-01-05T01:26:55.806Z,17.65
2023-01-05T01:29:23.625Z,16.40
2023-01-05T01:31:52.811Z,16.70
2023-01-05T01:34:19.810Z,13.77
2023-01-05T01:36:49.318Z,17.33
2023-01-05T01:39:16.551Z,17.95
2023-01-05T01:41:43.127Z,14.23
2023-01-05T01:44:47.791Z,18.75
2023-01-05T01:47:21.073Z,24.13
2023-01-05T01:49:48.327Z,13.20
2023-01-05T01:52:15.432Z,16.70
2023-01-05T01:54:42.490Z,17.67
2023-01-05T01:57:12.036Z,16.48
2023-01-05T01:59:39.260Z,18.98
2023-01-05T02:02:08.032Z,15.90
2023-01-05T02:04:38.094Z,20.98
2023-01-05T02:07:07.398Z,18.20
2023-01-05T02:09:34.695Z,14.60
2023-01-05T02:12:12.069Z,13.45
2023-01-05T02:14:51.195Z,14.70
2023-01-05T02:17:34.541Z,16.20
2023-01-05T02:20:29.872Z,17.42
2023-01-05T02:23:33.167Z,11.70
2023-01-05T02:26:17.989Z,22.35
2023-01-05T02:29:03.682Z,27.75
2023-01-05T02:32:11.135Z,19.35
2023-01-05T02:34:49.726Z,20.02
2023-01-05T02:37:25.693Z,16.40
2023-01-05T02:39:56.633Z,20.05
2023-01-05T02:42:25.003Z,17.35
2023-01-05T02:44:52.013Z,13.88
2023-01-05T02:47:27.998Z,19.58
2023-01-05T02:50:05.145Z,13.30
2023-01-05T02:53:03.444Z,18.70
2023-01-05T02:55:35.237Z,13.40
2023-01-05T02:58:17.977Z,20.92
2023-01-05T03:00:57.398Z,10.32
2023-01-05T03:03:33.565Z,13.23
2023-01-05T03:06:07.808Z,17.70
2023-01-05T03:08:39.071Z,17.20
2023-01-05T03:11:27.274Z,14.07
2023-01-05T03:14:08.493Z,12.05
2023-01-05T03:16:36.928Z,15.52
2023-01-05T03:19:27.670Z,21.65
2023-01-05T03:22:14.898Z,16.58
2023-01-05T03:25:02.111Z,20.75
2023-01-05T03:27:49.048Z,23.80
2023-01-05T03:30:34.919Z,18.00
2023-01-05T03:33:33.518Z,18.05
2023-01-05T03:36:01.149Z,17.08
2023-01-05T03:38:35.073Z,19.83
2023-01-05T03:41:05.265Z,21.17
2023-01-05T03:43:37.441Z,21.42
2023-01-05T03:46:17.913Z,18.02
2023-01-05T03:48:44.781Z,21.10
2023-01-05T03:51:11.765Z,16.98
2023-01-05T03:53:38.469Z,15.13
2023-01-05T03:56:05.307Z,16.75
2023-01-05T03:58:32.515Z,16.05
2023-01-05T04:00:59.532Z,21.48
2023-01-05T04:03:31.330Z,13.95
2023-01-05T04:05:58.640Z,18.60
2023-01-05T04:08:25.241Z,14.43
2023-01-05T04:10:53.534Z,18.80
2023-01-05T04:13:21.593Z,15.73
2023-01-05T04:15:48.252Z,20.50
2023-01-05T04:18:15.051Z,18.15
2023-01-05T04:20:42.269Z,15.50
2023-01-05T04:23:09.009Z,13.32
2023-01-05T04:25:35.661Z,16.77
2023-01-05T04:28:02.264Z,14.75
2023-01-05T04:30:28.890Z,17.95
2023-01-05T04:32:55.634Z,22.42
2023-01-05T04:35:22.401Z,16.40
2023-01-05T04:37:49.006Z,16.73
2023-01-05T04:40:15.583Z,19.40
2023-01-05T04:42:42.135Z,16.63
2023-01-05T04:45:09.088Z,20.17
2023-01-05T04:47:35.793Z,22.35
2023-01-05T04:50:02.602Z,19.58
2023-01-05T04:52:29.409Z,16.83
2023-01-05T04:54:55.985Z,18.30
2023-01-05T04:57:22.679Z,16.15
2023-01-05T04:59:49.367Z,17.38
2023-01-05T05:02:16.327Z,26.27
2023-01-05T05:04:42.994Z,18.27
2023-01-05T05:07:11.362Z,14.75
2023-01-05T05:09:37.992Z,18.15
2023-01-05T05:12:04.741Z,15.50
2023-01-05T05:14:31.520Z,20.25
2023-01-05T05:16:59.204Z,16.52
2023-01-05T05:19:25.884Z,22.45
2023-01-05T05:21:53.804Z,23.85
2023-01-05T05:24:20.426Z,18.38
2023-01-05T05:26:48.176Z,18.40
2023-01-05T05:29:14.828Z,23.20
2023-01-05T05:31:41.561Z,13.77
2023-01-05T05:34:08.283Z,15.60
2023-01-05T05:36:36.400Z,19.77
2023-01-05T05:39:03.158Z,26.40
2023-01-05T05:41:29.933Z,22.02
2023-01-05T05:44:01.021Z,22.95
2023-01-05T05:46:28.553Z,19.27
2023-01-05T05:48:59.375Z,20.52
2023-01-05T05:51:27.309Z,22.30
2023-01-05T05:53:54.138Z,21.27
2023-01-05T05:56:28.128Z,25.00
2023-01-05T05:59:00.809Z,19.20
2023-01-05T06:01:29.189Z,23.45
2023-01-05T06:03:56.011Z,28.80
2023-01-05T06:06:22.810Z,18.05
2023-01-05T06:08:49.400Z,21.67
2023-01-05T06:11:16.253Z,20.00
2023-01-05T06:13:42.921Z,18.40
2023-01-05T06:16:09.845Z,19.83
2023-01-05T06:18:37.994Z,21.10
2023-01-05T06:21:04.889Z,21.95
2023-01-05T06:23:31.612Z,26.50
2023-01-05T06:25:58.327Z,33.05
2023-01-05T06:28:24.945Z,31.40
2023-01-05T06:30:51.740Z,16.60
2023-01-05T06:33:18.578Z,18.58
2023-01-05T06:35:45.415Z,21.17
2023-01-05T06:38:12.052Z,24.55
2023-01-05T06:40:44.452Z,26.83
2023-01-05T06:43:12.704Z,23.67
2023-01-05T06:45:39.537Z,22.73
2023-01-05T06:48:06.615Z,21.48
2023-01-05T06:50:33.360Z,24.77
2023-01-05T06:53:01.084Z,19.80
2023-01-05T06:55:27.817Z,25.50
2023-01-05T06:58:00.519Z,20.95
2023-01-05T07:00:27.754Z,30.80
2023-01-05T07:02:54.355Z,23.98
2023-01-05T07:05:22.769Z,27.50
2023-01-05T07:07:49.355Z,23.25
2023-01-05T07:10:15.847Z,26.35
2023-01-05T07:12:42.602Z,20.45
2023-01-05T07:15:10.198Z,25.52
2023-01-05T07:17:37.037Z,23.10
2023-01-05T07:20:08.038Z,17.73
2023-01-05T07:22:37.793Z,24.63
2023-01-05T07:25:04.713Z,23.13
2023-01-05T07:27:32.017Z,22.05
2023-01-05T07:29:58.661Z,26.52
2023-01-05T07:32:25.237Z,21.92
2023-01-05T07:34:55.643Z,26.83
2023-01-05T07:37:24.888Z,26.42
2023-01-05T07:39:51.977Z,26.33
2023-01-05T07:42:18.633Z,19.90
2023-01-05T07:44:45.563Z,22.30
2023-01-05T07:47:12.562Z,19.90
2023-01-05T07:49:39.235Z,17.35
2023-01-05T07:52:09.635Z,24.17
2023-01-05T07:54:36.382Z,27.42
2023-01-05T07:57:03.258Z,22.67
2023-01-05T07:59:29.820Z,19.48
2023-01-05T08:01:56.550Z,28.25
2023-01-05T08:04:25.546Z,27.42
2023-01-05T08:06:52.616Z,22.08
2023-01-05T08:09:37.761Z,24.33
2023-01-05T08:12:04.440Z,21.77
2023-01-05T08:14:31.116Z,22.05
2023-01-05T08:16:59.040Z,24.60
2023-01-05T08:19:25.699Z,21.98
2023-01-05T08:21:52.227Z,20.60
2023-01-05T08:24:19.089Z,15.48
2023-01-05T08:26:45.695Z,23.58
2023-01-05T08:29:12.330Z,23.50
2023-01-05T08:31:45.088Z,20.98
2023-01-05T08:34:11.732Z,21.08
2023-01-05T08:36:38.386Z,23.17
2023-01-05T08:39:05.061Z,18.92
2023-01-05T08:41:36.194Z,25.13
2023-01-05T08:44:06.148Z,22.85
2023-01-05T08:46:36.851Z,21.90
2023-01-05T08:49:08.018Z,26.25
2023-01-05T08:51:35.161Z,21.38
2023-01-05T08:54:02.180Z,22.98
2023-01-05T08:56:34.669Z,18.52
2023-01-05T08:59:04.893Z,27.42
2023-01-05T09:01:31.659Z,18.45
2023-01-05T09:03:58.399Z,23.42
2023-01-05T09:06:25.176Z,30.63
2023-01-05T09:08:51.837Z,28.17
2023-01-05T09:11:24.588Z,22.55
2023-01-05T09:13:54.526Z,21.90
2023-01-05T09:19:11.116Z,21.65
2023-01-05T09:21:39.802Z,22.38
2023-01-05T09:24:12.285Z,26.88
2023-01-05T09:26:39.239Z,25.13
2023-01-05T09:29:05.820Z,19.63
2023-01-05T09:31:32.632Z,27.30
2023-01-05T09:33:59.496Z,31.10
2023-01-05T09:36:27.151Z,36.45
2023-01-05T09:38:56.808Z,20.58
2023-01-05T09:41:33.985Z,22.85
2023-01-05T09:44:39.100Z,23.70
2023-01-05T09:47:26.522Z,21.70
2023-01-05T09:49:56.836Z,31.65
2023-01-05T09:52:25.469Z,33.38
2023-01-05T09:54:52.352Z,22.52
2023-01-05T09:57:22.010Z,29.05
2023-01-05T09:59:52.251Z,23.55
2023-01-05T10:02:46.799Z,20.45
2023-01-05T10:05:14.766Z,23.73
2023-01-05T10:07:47.357Z,17.90
2023-01-05T10:11:11.611Z,34.88
2023-01-05T10:13:43.216Z,21.60
2023-01-05T10:16:16.827Z,21.08
2023-01-05T10:18:43.764Z,26.95
2023-01-05T10:21:43.820Z,18.67
2023-01-05T10:24:28.780Z,24.80
2023-01-05T10:27:24.636Z,20.58
2023-01-05T10:30:00.749Z,24.00
2023-01-05T10:32:50.301Z,23.67
2023-01-05T10:35:59.087Z,22.33
2023-01-05T10:38:30.760Z,20.98
2023-01-05T10:41:09.475Z,26.05
2023-01-05T10:43:54.573Z,19.67
2023-01-05T10:46:35.344Z,24.80
2023-01-05T10:49:07.752Z,22.73
2023-01-05T10:51:36.459Z,24.90
2023-01-05T10:54:03.680Z,22.27
2023-01-05T10:56:31.706Z,21.17
2023-01-05T10:59:12.543Z,21.40
2023-01-05T11:01:44.461Z,27.25
2023-01-05T11:04:33.765Z,27.13
2023-01-05T11:07:06.609Z,25.75
2023-01-05T11:09:40.065Z,33.95
2023-01-05T11:12:16.835Z,23.45
2023-01-05T11:14:50.843Z,22.08
2023-01-05T11:17:26.860Z,25.25
2023-01-05T11:19:56.586Z,23.80
2023-01-05T11:22:38.661Z,20.55
2023-01-05T11:25:28.300Z,22.50
2023-01-05T11:28:14.895Z,24.00
2023-01-05T11:30:47.308Z,21.83
2023-01-05T11:33:25.420Z,35.47
2023-01-05T11:35:52.936Z,16.58
2023-01-05T11:38:25.648Z,20.90
2023-01-05T11:40:52.931Z,21.95
2023-01-05T11:43:26.591Z,19.92
2023-01-05T11:45:57.013Z,20.08
2023-01-05T11:48:27.620Z,19.80
2023-01-05T11:50:56.664Z,17.27
2023-01-05T11:53:38.394Z,15.63
2023-01-05T11:56:07.865Z,19.30
2023-01-05T11:58:43.465Z,20.33
2023-01-05T12:01:47.997Z,18.90
2023-01-05T12:04:42.428Z,16.05
2023-01-05T12:07:33.023Z,24.52
2023-01-05T12:10:20.914Z,17.75
2023-01-05T12:13:02.731Z,40.78
2023-01-05T12:15:57.259Z,20.63
2023-01-05T12:19:22.912Z,18.85
2023-01-05T12:22:28.970Z,21.80
2023-01-05T12:25:10.978Z,20.25
2023-01-05T12:27:48.821Z,33.30
2023-01-05T12:36:23.051Z,18.55
2023-01-05T12:39:08.723Z,20.63
2023-01-05T12:42:02.757Z,24.75
2023-01-05T12:45:07.189Z,17.58
2023-01-05T12:47:58.279Z,16.00
2023-01-05T12:50:47.736Z,14.80
2023-01-05T12:53:40.532Z,15.88
2023-01-05T12:56:51.535Z,20.35
2023-01-05T12:59:33.924Z,13.32
2023-01-05T13:02:16.237Z,17.55
2023-01-05T13:04:57.432Z,17.38
2023-01-05T13:07:43.272Z,18.95
2023-01-05T13:10:39.588Z,18.60
2023-01-05T13:13:20.200Z,17.45
2023-01-05T13:16:00.423Z,15.57
2023-01-05T13:18:27.523Z,14.93
2023-01-05T13:21:06.859Z,15.75
2023-01-05T13:23:47.273Z,18.52
2023-01-05T13:26:19.329Z,18.58
2023-01-05T13:28:52.252Z,19.20
2023-01-05T13:31:59.933Z,19.50
2023-01-05T13:34:57.572Z,15.15
2023-01-05T13:37:45.012Z,11.40
2023-01-05T13:40:17.558Z,18.27
2023-01-05T13:43:03.970Z,20.08
2023-01-05T13:46:09.180Z,16.77
2023-01-05T13:48:44.645Z,14.68
2023-01-05T13:51:53.863Z,19.30
2023-01-05T13:54:25.690Z,23.65
2023-01-05T13:56:52.425Z,18.90
2023-01-05T13:59:35.217Z,17.83
2023-01-05T14:02:26.778Z,17.08
2023-01-05T14:04:53.859Z,20.75
2023-01-05T14:07:20.978Z,20.88
2023-01-05T14:09:53.870Z,21.70
2023-01-05T14:12:22.045Z,18.23
2023-01-05T14:15:00.473Z,23.27
2023-01-05T14:17:52.422Z,19.60
2023-01-05T14:20:47.488Z,24.77
2023-01-05T14:23:24.211Z,19.77
2023-01-05T14:26:11.189Z,22.90
2023-01-05T14:28:44.351Z,31.85
2023-01-05T14:31:26.022Z,23.10
2023-01-05T14:33:59.492Z,17.52
2023-01-05T14:36:55.455Z,22.45
2023-01-05T14:39:29.891Z,18.38
2023-01-05T14:42:04.227Z,10.57
2023-01-05T14:44:41.683Z,21.30
2023-01-05T14:47:09.968Z,15.55
2023-01-05T14:49:53.686Z,13.75
2023-01-05T14:52:54.296Z,11.82
2023-01-05T14:55:39.310Z,13.90
2023-01-05T14:58:37.951Z,11.70
2023-01-05T15:01:16.846Z,7.97
2023-01-05T15:04:02.646Z,6.88
2023-01-05T15:06:41.082Z,9.02
2023-01-05T15:09:18.014Z,9.25
2023-01-05T15:12:13.946Z,10.63
2023-01-05T15:14:54.964Z,3.97
2023-01-05T15:17:27.382Z,5.90
2023-01-05T15:20:21.732Z,5.43
2023-01-05T15:23:15.083Z,3.65
2023-01-05T15:26:03.136Z,6.30
2023-01-05T15:28:54.617Z,3.67
2023-01-05T15:31:44.657Z,3.88
2023-01-05T15:34:19.008Z,5.40
2023-01-05T15:37:05.323Z,4.25
2023-01-05T15:39:44.911Z,3.60
2023-01-05T15:42:20.461Z,3.25
2023-01-05T15:44:49.584Z,3.58
2023-01-05T15:47:22.413Z,4.68
2023-01-05T15:49:50.383Z,2.95
2023-01-05T15:52:39.085Z,4.70
2023-01-05T15:55:18.377Z,4.68
2023-01-05T15:58:05.999Z,3.72
2023-01-05T16:00:36.226Z,3.92
2023-01-05T16:03:29.580Z,4.80
2023-01-05T16:06:00.843Z,16.92
2023-01-05T16:08:27.740Z,2.95
2023-01-05T16:10:59.716Z,5.93
2023-01-05T16:13:29.051Z,5.45
2023-01-05T16:15:59.040Z,2.05
2023-01-05T16:18:38.327Z,5.65
2023-01-05T16:21:17.280Z,3.40
2023-01-05T16:23:58.327Z,2.05
2023-01-05T16:26:25.340Z,2.38
2023-01-05T16:28:52.333Z,3.78
2023-01-05T16:31:34.709Z,3.72
2023-01-05T16:34:14.553Z,3.17
2023-01-05T16:36:41.189Z,2.53
2023-01-05T16:39:21.864Z,2.60
2023-01-05T16:42:07.416Z,3.30
2023-01-05T16:44:36.741Z,3.33
2023-01-05T16:47:09.871Z,3.03
2023-01-05T16:49:49.884Z,3.67
2023-01-05T16:52:27.389Z,3.33
2023-01-05T16:55:30.893Z,3.63
2023-01-05T16:57:59.496Z,2.72
2023-01-05T17:00:26.077Z,4.00
2023-01-05T17:02:54.384Z,3.00
2023-01-05T17:05:23.671Z,2.63
2023-01-05T17:07:58.443Z,2.63
2023-01-05T17:10:26.703Z,2.50
2023-01-05T17:13:06.709Z,2.70
2023-01-05T17:15:36.263Z,2.40
2023-01-05T17:18:27.486Z,2.42
2023-01-05T17:20:57.515Z,2.53
2023-01-05T17:23:32.808Z,3.33
2023-01-05T17:26:13.524Z,2.50
2023-01-05T17:28:42.191Z,2.85
2023-01-05T17:31:09.985Z,4.70
2023-01-05T17:33:36.637Z,2.20
2023-01-05T17:36:04.022Z,2.55
2023-01-05T17:38:30.604Z,1.65
2023-01-05T17:40:58.802Z,3.33
2023-01-05T17:43:25.602Z,2.88
2023-01-05T17:45:53.072Z,2.75
2023-01-05T17:48:19.733Z,1.52
2023-01-05T17:50:46.904Z,1.50
2023-01-05T17:53:13.569Z,2.67
2023-01-05T17:55:41.195Z,6.20
2023-01-05T17:58:10.973Z,18.40
2023-01-05T18:03:15.760Z,43.20
2023-01-05T18:05:44.129Z,17.35
2023-01-05T18:08:12.568Z,88.90
2023-01-05T18:10:40.055Z,117.55
2023-01-05T18:15:45.158Z,42.92
2023-01-05T18:18:12.653Z,38.80
2023-01-05T18:20:43.141Z,126.95
2023-01-05T18:23:10.576Z,64.65
2023-01-05T18:25:39.354Z,90.28
2023-01-05T18:28:07.020Z,96.03
2023-01-05T18:30:33.928Z,35.65
2023-01-05T18:33:00.789Z,85.25
2023-01-05T18:35:27.554Z,233.90
2023-01-05T18:37:58.215Z,232.30
2023-01-05T18:40:24.918Z,121.93
2023-01-05T18:42:51.512Z,26.77
2023-01-05T18:45:31.717Z,135.65
2023-01-05T18:47:59.074Z,65.80
2023-01-05T18:50:26.059Z,76.28
2023-01-05T18:52:52.872Z,60.00
2023-01-05T18:55:19.441Z,108.20
2023-01-05T18:57:46.183Z,62.53
2023-01-05T19:00:13.695Z,33.83
2023-01-05T19:02:40.668Z,40.70
2023-01-05T19:05:07.513Z,195.50
2023-01-05T19:07:34.802Z,84.50
2023-01-05T19:10:01.355Z,48.25
2023-01-05T19:12:27.864Z,28.30
2023-01-05T19:14:54.366Z,17.35
2023-01-05T19:17:21.133Z,13.85
2023-01-05T19:19:47.822Z,22.35
2023-01-05T19:22:14.921Z,23.10
2023-01-05T19:24:41.716Z,55.42
2023-01-05T19:27:08.398Z,43.90
2023-01-05T19:29:35.327Z,73.43
2023-01-05T19:32:01.923Z,38.22
2023-01-05T19:34:28.519Z,28.02
2023-01-05T19:36:55.149Z,46.03
2023-01-05T19:39:21.990Z,22.55
2023-01-05T19:41:51.608Z,134.45
2023-01-05T19:44:20.323Z,66.82
2023-01-05T19:46:49.365Z,16.52
2023-01-05T19:49:20.594Z,9.38
2023-01-05T19:51:47.793Z,3.03
2023-01-05T19:54:15.155Z,2.15
2023-01-05T19:56:42.904Z,2.38
2023-01-05T19:59:16.917Z,2.30
2023-01-05T20:01:45.527Z,2.20
2023-01-05T20:04:14.049Z,2.45
2023-01-05T20:06:44.302Z,2.40
2023-01-05T20:09:16.363Z,2.20
2023-01-05T20:11:45.093Z,1.80
2023-01-05T20:14:15.681Z,2.13
2023-01-05T20:16:44.347Z,3.15
2023-01-05T20:19:11.803Z,2.22
2023-01-05T20:21:38.737Z,2.15
2023-01-05T20:24:11.067Z,3.08
2023-01-05T20:26:38.131Z,5.72
2023-01-05T20:29:05.022Z,13.95
2023-01-05T20:31:35.427Z,70.00
2023-01-05T20:34:08.601Z,6.60
2023-01-05T20:36:35.334Z,6.68
2023-01-05T20:39:06.066Z,3.20
2023-01-05T20:41:37.128Z,5.28
2023-01-05T20:44:05.077Z,44.42
2023-01-05T20:46:39.259Z,55.15
2023-01-05T20:49:06.390Z,16.73
2023-01-05T20:51:33.338Z,12.95
2023-01-05T20:54:02.514Z,35.35
2023-01-05T20:56:39.073Z,6.15
2023-01-05T20:59:08.519Z,6.07
2023-01-05T21:01:36.201Z,1.85
2023-01-05T21:04:04.329Z,2.30
2023-01-05T21:06:30.979Z,1.17
2023-01-05T21:08:57.777Z,0.75
2023-01-05T21:11:26.151Z,0.60
2023-01-05T21:13:57.143Z,1.65
2023-01-05T21:16:35.573Z,0.70
2023-01-05T21:19:02.568Z,1.27
2023-01-05T21:21:30.378Z,0.70
2023-01-05T21:23:57.212Z,0.98
2023-01-05T21:26:24.522Z,1.60
2023-01-05T21:28:52.949Z,1.10
2023-01-05T21:31:23.702Z,1.00
2023-01-05T21:33:50.630Z,2.17
2023-01-05T21:36:25.804Z,1.30
2023-01-05T21:39:00.265Z,2.67
2023-01-05T21:41:50.911Z,2.65
2023-01-05T21:44:19.539Z,1.88
2023-01-05T21:46:47.010Z,2.63
2023-01-05T21:49:14.483Z,1.15
2023-01-05T21:51:59.981Z,1.00
2023-01-05T21:54:45.764Z,2.15
2023-01-05T21:57:12.963Z,1.42
2023-01-05T21:59:40.225Z,1.92
2023-01-05T22:02:07.541Z,1.20
2023-01-05T22:04:34.325Z,2.20
2023-01-05T22:07:00.985Z,3.80
2023-01-05T22:09:27.613Z,5.20
2023-01-05T22:11:54.145Z,3.90
2023-01-05T22:14:20.732Z,2.40
2023-01-05T22:16:48.424Z,4.47
2023-01-05T22:19:15.011Z,2.28
2023-01-05T22:21:41.609Z,3.20
2023-01-05T22:24:09.571Z,3.78
2023-01-05T22:26:36.320Z,4.75
2023-01-05T22:29:03.136Z,2.25
2023-01-05T22:31:31.385Z,5.85
2023-01-05T22:34:00.012Z,5.95
2023-01-05T22:36:28.461Z,5.35
2023-01-05T22:38:55.658Z,4.57
2023-01-05T22:41:24.856Z,3.95
2023-01-05T22:43:51.871Z,5.78
2023-01-05T22:46:24.452Z,3.97
2023-01-05T22:48:53.103Z,4.55
2023-01-05T22:51:31.085Z,4.85
2023-01-05T22:53:58.870Z,4.45
2023-01-05T22:56:27.388Z,3.47
2023-01-05T22:58:55.854Z,3.80
2023-01-05T23:01:25.512Z,2.67
2023-01-05T23:03:53.773Z,2.83
2023-01-05T23:06:21.614Z,4.72
2023-01-05T23:08:49.709Z,1.35
2023-01-05T23:11:24.479Z,0.65
2023-01-05T23:13:52.887Z,0.70
2023-01-05T23:16:19.843Z,0.60
2023-01-05T23:18:48.360Z,0.70
2023-01-05T23:21:15.331Z,0.88
2023-01-05T23:23:41.906Z,0.75
2023-01-05T23:26:10.887Z,1.25
2023-01-05T23:28:38.219Z,2.20
2023-01-05T23:31:05.690Z,0.82
2023-01-05T23:33:34.940Z,0.80
2023-01-05T23:36:02.244Z,1.92
2023-01-05T23:38:29.499Z,2.15
2023-01-05T23:40:57.654Z,0.80
2023-01-05T23:43:28.143Z,1.85
2023-01-05T23:46:11.115Z,1.00
2023-01-05T23:48:38.444Z,1.25
2023-01-05T23:51:07.907Z,1.13
2023-01-05T23:53:34.512Z,1.27
2023-01-05T23:56:13.208Z,2.63
2023-01-05T23:58:40.076Z,1.15
